sensor_id;sensor_type;location;lat;lon;timestamp;P1;durP1;ratioP1;P2;durP2;ratioP2
8580;SDS011;4328;48.622;9.230;2023-07-08T00:01:04;6.03;;;4.70;;
8580;SDS011;4328;48.622;9.230;2023-07-08T00:03:30;7.17;;;5.03;;
8580;SDS011;4328;48.622;9.230;2023-07-08T00:05:57;6.87;;;5.63;;
8580;SDS011;4328;48.622;9.230;2023-07-08T00:08:23;7.17;;;5.40;;
8580;SDS011;4328;48.622;9.230;2023-07-08T00:10:49;6.53;;;5.13;;
8580;SDS011;4328;48.622;9.230;2023-07-08T00:13:17;6.10;;;5.13;;
8580;SDS011;4328;48.622;9.230;2023-07-08T00:15:44;5.77;;;5.17;;
8580;SDS011;4328;48.622;9.230;2023-07-08T00:18:11;6.80;;;4.93;;
8580;SDS011;4328;48.622;9.230;2023-07-08T00:20:39;7.93;;;5.27;;
8580;SDS011;4328;48.622;9.230;2023-07-08T00:23:05;5.60;;;5.10;;
8580;SDS011;4328;48.622;9.230;2023-07-08T00:25:32;6.23;;;4.90;;
8580;SDS011;4328;48.622;9.230;2023-07-08T00:27:58;6.37;;;5.30;;
8580;SDS011;4328;48.622;9.230;2023-07-08T00:30:28;6.53;;;5.50;;
8580;SDS011;4328;48.622;9.230;2023-07-08T00:32:55;7.10;;;5.40;;
8580;SDS011;4328;48.622;9.230;2023-07-08T00:35:21;6.37;;;5.20;;
8580;SDS011;4328;48.622;9.230;2023-07-08T00:37:49;6.93;;;5.50;;
8580;SDS011;4328;48.622;9.230;2023-07-08T00:40:18;8.00;;;5.63;;
8580;SDS011;4328;48.622;9.230;2023-07-08T00:42:44;8.23;;;5.50;;
8580;SDS011;4328;48.622;9.230;2023-07-08T00:45:15;5.80;;;4.90;;
8580;SDS011;4328;48.622;9.230;2023-07-08T00:47:43;6.33;;;5.63;;
8580;SDS011;4328;48.622;9.230;2023-07-08T00:50:10;6.90;;;5.53;;
8580;SDS011;4328;48.622;9.230;2023-07-08T00:52:37;6.53;;;5.30;;
8580;SDS011;4328;48.622;9.230;2023-07-08T00:55:04;6.83;;;5.20;;
8580;SDS011;4328;48.622;9.230;2023-07-08T00:57:33;8.07;;;5.50;;
8580;SDS011;4328;48.622;9.230;2023-07-08T01:00:02;6.77;;;5.57;;
8580;SDS011;4328;48.622;9.230;2023-07-08T01:02:29;7.83;;;5.20;;
8580;SDS011;4328;48.622;9.230;2023-07-08T01:05:01;7.20;;;5.27;;
8580;SDS011;4328;48.622;9.230;2023-07-08T01:07:28;6.77;;;5.80;;
8580;SDS011;4328;48.622;9.230;2023-07-08T01:09:55;7.30;;;5.53;;
8580;SDS011;4328;48.622;9.230;2023-07-08T01:12:25;6.30;;;5.50;;
8580;SDS011;4328;48.622;9.230;2023-07-08T01:14:52;5.73;;;5.07;;
8580;SDS011;4328;48.622;9.230;2023-07-08T01:17:20;6.07;;;5.47;;
8580;SDS011;4328;48.622;9.230;2023-07-08T01:19:46;6.37;;;5.20;;
8580;SDS011;4328;48.622;9.230;2023-07-08T01:22:14;5.53;;;5.03;;
8580;SDS011;4328;48.622;9.230;2023-07-08T01:24:41;7.73;;;5.27;;
8580;SDS011;4328;48.622;9.230;2023-07-08T01:27:10;6.87;;;5.27;;
8580;SDS011;4328;48.622;9.230;2023-07-08T01:29:37;6.80;;;6.00;;
8580;SDS011;4328;48.622;9.230;2023-07-08T01:32:03;6.07;;;5.47;;
8580;SDS011;4328;48.622;9.230;2023-07-08T01:34:30;6.67;;;5.37;;
8580;SDS011;4328;48.622;9.230;2023-07-08T01:36:57;6.30;;;5.40;;
8580;SDS011;4328;48.622;9.230;2023-07-08T01:39:27;7.03;;;5.40;;
8580;SDS011;4328;48.622;9.230;2023-07-08T01:41:55;7.43;;;6.10;;
8580;SDS011;4328;48.622;9.230;2023-07-08T01:44:22;5.83;;;5.30;;
8580;SDS011;4328;48.622;9.230;2023-07-08T01:46:49;6.23;;;5.63;;
8580;SDS011;4328;48.622;9.230;2023-07-08T01:49:16;8.00;;;5.23;;
8580;SDS011;4328;48.622;9.230;2023-07-08T01:51:42;5.97;;;5.37;;
8580;SDS011;4328;48.622;9.230;2023-07-08T01:54:09;6.10;;;5.50;;
8580;SDS011;4328;48.622;9.230;2023-07-08T01:56:37;6.70;;;5.60;;
8580;SDS011;4328;48.622;9.230;2023-07-08T01:59:03;6.07;;;5.43;;
8580;SDS011;4328;48.622;9.230;2023-07-08T02:01:29;6.10;;;5.27;;
8580;SDS011;4328;48.622;9.230;2023-07-08T02:03:56;7.80;;;5.57;;
8580;SDS011;4328;48.622;9.230;2023-07-08T02:06:22;6.23;;;5.63;;
8580;SDS011;4328;48.622;9.230;2023-07-08T02:08:49;7.03;;;5.23;;
8580;SDS011;4328;48.622;9.230;2023-07-08T02:11:16;8.13;;;5.90;;
8580;SDS011;4328;48.622;9.230;2023-07-08T02:13:44;6.90;;;5.60;;
8580;SDS011;4328;48.622;9.230;2023-07-08T02:16:10;6.43;;;5.63;;
8580;SDS011;4328;48.622;9.230;2023-07-08T02:18:37;7.17;;;5.60;;
8580;SDS011;4328;48.622;9.230;2023-07-08T02:21:03;6.00;;;5.33;;
8580;SDS011;4328;48.622;9.230;2023-07-08T02:23:30;6.23;;;5.63;;
8580;SDS011;4328;48.622;9.230;2023-07-08T02:25:57;6.20;;;5.60;;
8580;SDS011;4328;48.622;9.230;2023-07-08T02:28:23;6.50;;;5.83;;
8580;SDS011;4328;48.622;9.230;2023-07-08T02:30:51;7.17;;;5.50;;
8580;SDS011;4328;48.622;9.230;2023-07-08T02:33:17;6.10;;;5.50;;
8580;SDS011;4328;48.622;9.230;2023-07-08T02:35:43;7.73;;;6.13;;
8580;SDS011;4328;48.622;9.230;2023-07-08T02:38:10;7.17;;;5.80;;
8580;SDS011;4328;48.622;9.230;2023-07-08T02:40:37;7.07;;;5.60;;
8580;SDS011;4328;48.622;9.230;2023-07-08T02:43:03;6.57;;;5.83;;
8580;SDS011;4328;48.622;9.230;2023-07-08T02:45:29;6.50;;;5.40;;
8580;SDS011;4328;48.622;9.230;2023-07-08T02:47:57;7.53;;;5.43;;
8580;SDS011;4328;48.622;9.230;2023-07-08T02:50:24;7.23;;;5.70;;
8580;SDS011;4328;48.622;9.230;2023-07-08T02:52:50;6.10;;;5.50;;
8580;SDS011;4328;48.622;9.230;2023-07-08T02:55:16;6.83;;;5.63;;
8580;SDS011;4328;48.622;9.230;2023-07-08T02:57:43;6.70;;;5.47;;
8580;SDS011;4328;48.622;9.230;2023-07-08T03:00:10;6.33;;;5.33;;
8580;SDS011;4328;48.622;9.230;2023-07-08T03:02:36;6.03;;;5.40;;
8580;SDS011;4328;48.622;9.230;2023-07-08T03:05:05;5.90;;;5.30;;
8580;SDS011;4328;48.622;9.230;2023-07-08T03:07:31;7.47;;;5.40;;
8580;SDS011;4328;48.622;9.230;2023-07-08T03:09:58;7.00;;;5.60;;
8580;SDS011;4328;48.622;9.230;2023-07-08T03:12:24;5.73;;;5.00;;
8580;SDS011;4328;48.622;9.230;2023-07-08T03:14:51;5.97;;;5.13;;
8580;SDS011;4328;48.622;9.230;2023-07-08T03:17:17;6.27;;;5.23;;
8580;SDS011;4328;48.622;9.230;2023-07-08T03:19:44;5.90;;;5.20;;
8580;SDS011;4328;48.622;9.230;2023-07-08T03:22:11;7.77;;;5.77;;
8580;SDS011;4328;48.622;9.230;2023-07-08T03:24:38;7.17;;;5.53;;
8580;SDS011;4328;48.622;9.230;2023-07-08T03:27:10;7.10;;;5.60;;
8580;SDS011;4328;48.622;9.230;2023-07-08T03:29:37;6.53;;;5.60;;
8580;SDS011;4328;48.622;9.230;2023-07-08T03:32:04;7.87;;;5.70;;
8580;SDS011;4328;48.622;9.230;2023-07-08T03:34:30;6.33;;;5.50;;
8580;SDS011;4328;48.622;9.230;2023-07-08T03:36:57;6.90;;;6.10;;
8580;SDS011;4328;48.622;9.230;2023-07-08T03:39:24;8.60;;;5.77;;
8580;SDS011;4328;48.622;9.230;2023-07-08T03:41:51;7.57;;;5.70;;
8580;SDS011;4328;48.622;9.230;2023-07-08T03:44:18;6.50;;;5.60;;
8580;SDS011;4328;48.622;9.230;2023-07-08T03:46:45;6.20;;;5.60;;
8580;SDS011;4328;48.622;9.230;2023-07-08T03:49:12;6.67;;;5.17;;
8580;SDS011;4328;48.622;9.230;2023-07-08T03:51:39;7.77;;;5.90;;
8580;SDS011;4328;48.622;9.230;2023-07-08T03:54:06;6.53;;;5.83;;
8580;SDS011;4328;48.622;9.230;2023-07-08T03:56:36;6.93;;;5.50;;
8580;SDS011;4328;48.622;9.230;2023-07-08T03:59:02;6.80;;;6.00;;
8580;SDS011;4328;48.622;9.230;2023-07-08T04:01:28;6.47;;;5.73;;
8580;SDS011;4328;48.622;9.230;2023-07-08T04:03:55;7.20;;;5.60;;
8580;SDS011;4328;48.622;9.230;2023-07-08T04:06:22;6.53;;;5.83;;
8580;SDS011;4328;48.622;9.230;2023-07-08T04:08:49;8.03;;;5.73;;
8580;SDS011;4328;48.622;9.230;2023-07-08T04:11:16;6.30;;;5.17;;
8580;SDS011;4328;48.622;9.230;2023-07-08T04:13:44;6.23;;;5.40;;
8580;SDS011;4328;48.622;9.230;2023-07-08T04:16:17;6.67;;;5.27;;
8580;SDS011;4328;48.622;9.230;2023-07-08T04:18:44;6.40;;;5.50;;
8580;SDS011;4328;48.622;9.230;2023-07-08T04:21:11;5.67;;;5.17;;
8580;SDS011;4328;48.622;9.230;2023-07-08T04:23:37;5.47;;;4.97;;
8580;SDS011;4328;48.622;9.230;2023-07-08T04:26:04;7.57;;;5.73;;
8580;SDS011;4328;48.622;9.230;2023-07-08T04:28:30;6.47;;;5.63;;
8580;SDS011;4328;48.622;9.230;2023-07-08T04:30:58;6.73;;;5.43;;
8580;SDS011;4328;48.622;9.230;2023-07-08T04:33:24;6.30;;;5.33;;
8580;SDS011;4328;48.622;9.230;2023-07-08T04:35:51;5.97;;;5.37;;
8580;SDS011;4328;48.622;9.230;2023-07-08T04:38:20;6.13;;;5.53;;
8580;SDS011;4328;48.622;9.230;2023-07-08T04:40:46;5.97;;;5.37;;
8580;SDS011;4328;48.622;9.230;2023-07-08T04:43:13;6.10;;;5.50;;
8580;SDS011;4328;48.622;9.230;2023-07-08T04:45:39;6.03;;;5.40;;
8580;SDS011;4328;48.622;9.230;2023-07-08T04:48:08;8.50;;;5.83;;
8580;SDS011;4328;48.622;9.230;2023-07-08T04:50:39;7.17;;;5.50;;
8580;SDS011;4328;48.622;9.230;2023-07-08T04:53:05;6.07;;;5.47;;
8580;SDS011;4328;48.622;9.230;2023-07-08T04:55:32;7.30;;;5.43;;
8580;SDS011;4328;48.622;9.230;2023-07-08T04:57:58;7.60;;;5.40;;
8580;SDS011;4328;48.622;9.230;2023-07-08T05:00:27;6.33;;;5.73;;
8580;SDS011;4328;48.622;9.230;2023-07-08T05:02:53;6.87;;;5.90;;
8580;SDS011;4328;48.622;9.230;2023-07-08T05:05:21;5.90;;;5.40;;
8580;SDS011;4328;48.622;9.230;2023-07-08T05:07:47;7.80;;;5.77;;
8580;SDS011;4328;48.622;9.230;2023-07-08T05:10:14;7.30;;;5.80;;
8580;SDS011;4328;48.622;9.230;2023-07-08T05:12:41;10.40;;;6.00;;
8580;SDS011;4328;48.622;9.230;2023-07-08T05:15:08;6.20;;;5.37;;
8580;SDS011;4328;48.622;9.230;2023-07-08T05:17:34;7.30;;;5.27;;
8580;SDS011;4328;48.622;9.230;2023-07-08T05:20:01;6.40;;;5.50;;
8580;SDS011;4328;48.622;9.230;2023-07-08T05:22:29;6.87;;;6.17;;
8580;SDS011;4328;48.622;9.230;2023-07-08T05:24:56;6.10;;;5.50;;
8580;SDS011;4328;48.622;9.230;2023-07-08T05:27:23;7.30;;;5.60;;
8580;SDS011;4328;48.622;9.230;2023-07-08T05:29:49;6.67;;;5.97;;
8580;SDS011;4328;48.622;9.230;2023-07-08T05:32:16;6.43;;;5.73;;
8580;SDS011;4328;48.622;9.230;2023-07-08T05:34:43;6.77;;;5.90;;
8580;SDS011;4328;48.622;9.230;2023-07-08T05:37:09;7.07;;;5.60;;
8580;SDS011;4328;48.622;9.230;2023-07-08T05:39:37;6.17;;;5.53;;
8580;SDS011;4328;48.622;9.230;2023-07-08T05:42:03;7.53;;;5.83;;
8580;SDS011;4328;48.622;9.230;2023-07-08T05:44:30;6.60;;;5.53;;
8580;SDS011;4328;48.622;9.230;2023-07-08T05:46:56;6.07;;;4.97;;
8580;SDS011;4328;48.622;9.230;2023-07-08T05:49:23;6.67;;;5.93;;
8580;SDS011;4328;48.622;9.230;2023-07-08T05:51:49;6.73;;;6.03;;
8580;SDS011;4328;48.622;9.230;2023-07-08T05:54:16;10.40;;;5.93;;
8580;SDS011;4328;48.622;9.230;2023-07-08T05:56:44;6.67;;;5.67;;
8580;SDS011;4328;48.622;9.230;2023-07-08T05:59:10;8.53;;;6.20;;
8580;SDS011;4328;48.622;9.230;2023-07-08T06:01:37;9.43;;;6.20;;
8580;SDS011;4328;48.622;9.230;2023-07-08T06:04:04;6.83;;;5.77;;
8580;SDS011;4328;48.622;9.230;2023-07-08T06:06:30;7.10;;;6.20;;
8580;SDS011;4328;48.622;9.230;2023-07-08T06:08:56;6.47;;;5.80;;
8580;SDS011;4328;48.622;9.230;2023-07-08T06:11:23;6.07;;;5.57;;
8580;SDS011;4328;48.622;9.230;2023-07-08T06:13:51;7.03;;;6.13;;
8580;SDS011;4328;48.622;9.230;2023-07-08T06:16:17;6.00;;;5.40;;
8580;SDS011;4328;48.622;9.230;2023-07-08T06:18:44;7.60;;;6.00;;
8580;SDS011;4328;48.622;9.230;2023-07-08T06:21:10;8.43;;;6.50;;
8580;SDS011;4328;48.622;9.230;2023-07-08T06:23:37;6.80;;;6.10;;
8580;SDS011;4328;48.622;9.230;2023-07-08T06:26:03;6.90;;;6.03;;
8580;SDS011;4328;48.622;9.230;2023-07-08T06:28:29;6.70;;;6.00;;
8580;SDS011;4328;48.622;9.230;2023-07-08T06:30:57;7.70;;;6.00;;
8580;SDS011;4328;48.622;9.230;2023-07-08T06:33:24;6.97;;;6.27;;
8580;SDS011;4328;48.622;9.230;2023-07-08T06:35:50;9.03;;;5.83;;
8580;SDS011;4328;48.622;9.230;2023-07-08T06:38:16;7.60;;;5.70;;
8580;SDS011;4328;48.622;9.230;2023-07-08T06:40:43;6.17;;;5.53;;
8580;SDS011;4328;48.622;9.230;2023-07-08T06:43:09;7.27;;;6.03;;
8580;SDS011;4328;48.622;9.230;2023-07-08T06:45:36;7.63;;;6.40;;
8580;SDS011;4328;48.622;9.230;2023-07-08T06:48:04;6.57;;;5.90;;
8580;SDS011;4328;48.622;9.230;2023-07-08T06:50:30;9.30;;;6.40;;
8580;SDS011;4328;48.622;9.230;2023-07-08T06:52:56;7.17;;;6.00;;
8580;SDS011;4328;48.622;9.230;2023-07-08T06:55:23;8.67;;;6.20;;
8580;SDS011;4328;48.622;9.230;2023-07-08T06:57:49;8.17;;;6.60;;
8580;SDS011;4328;48.622;9.230;2023-07-08T07:00:17;11.17;;;6.23;;
8580;SDS011;4328;48.622;9.230;2023-07-08T07:02:43;6.60;;;5.97;;
8580;SDS011;4328;48.622;9.230;2023-07-08T07:05:11;8.17;;;5.87;;
8580;SDS011;4328;48.622;9.230;2023-07-08T07:07:37;8.67;;;6.27;;
8580;SDS011;4328;48.622;9.230;2023-07-08T07:10:04;6.80;;;6.07;;
8580;SDS011;4328;48.622;9.230;2023-07-08T07:12:31;7.67;;;6.10;;
8580;SDS011;4328;48.622;9.230;2023-07-08T07:14:57;7.83;;;5.97;;
8580;SDS011;4328;48.622;9.230;2023-07-08T07:17:23;7.50;;;5.93;;
8580;SDS011;4328;48.622;9.230;2023-07-08T07:19:52;6.80;;;6.07;;
8580;SDS011;4328;48.622;9.230;2023-07-08T07:22:19;6.33;;;5.73;;
8580;SDS011;4328;48.622;9.230;2023-07-08T07:24:46;8.70;;;6.33;;
8580;SDS011;4328;48.622;9.230;2023-07-08T07:27:12;9.13;;;5.77;;
8580;SDS011;4328;48.622;9.230;2023-07-08T07:29:40;6.57;;;5.67;;
8580;SDS011;4328;48.622;9.230;2023-07-08T07:32:07;7.43;;;5.73;;
8580;SDS011;4328;48.622;9.230;2023-07-08T07:34:34;8.27;;;5.32;;
8580;SDS011;4328;48.622;9.230;2023-07-08T07:37:00;6.70;;;5.37;;
8580;SDS011;4328;48.622;9.230;2023-07-08T07:39:28;8.70;;;5.80;;
8580;SDS011;4328;48.622;9.230;2023-07-08T07:41:55;6.30;;;5.60;;
8580;SDS011;4328;48.622;9.230;2023-07-08T07:44:21;6.60;;;5.75;;
8580;SDS011;4328;48.622;9.230;2023-07-08T07:46:47;8.68;;;5.43;;
8580;SDS011;4328;48.622;9.230;2023-07-08T07:49:14;5.85;;;5.00;;
8580;SDS011;4328;48.622;9.230;2023-07-08T07:51:40;6.07;;;5.45;;
8580;SDS011;4328;48.622;9.230;2023-07-08T07:54:07;7.00;;;5.00;;
8580;SDS011;4328;48.622;9.230;2023-07-08T07:56:34;6.13;;;5.43;;
8580;SDS011;4328;48.622;9.230;2023-07-08T07:59:02;6.82;;;5.20;;
8580;SDS011;4328;48.622;9.230;2023-07-08T08:01:28;8.43;;;5.30;;
8580;SDS011;4328;48.622;9.230;2023-07-08T08:03:55;7.15;;;5.32;;
8580;SDS011;4328;48.622;9.230;2023-07-08T08:06:21;5.03;;;4.57;;
8580;SDS011;4328;48.622;9.230;2023-07-08T08:08:48;7.55;;;5.30;;
8580;SDS011;4328;48.622;9.230;2023-07-08T08:11:15;7.05;;;6.05;;
8580;SDS011;4328;48.622;9.230;2023-07-08T08:13:42;8.13;;;6.18;;
8580;SDS011;4328;48.622;9.230;2023-07-08T08:16:09;6.20;;;5.50;;
8580;SDS011;4328;48.622;9.230;2023-07-08T08:18:35;6.97;;;4.95;;
8580;SDS011;4328;48.622;9.230;2023-07-08T08:21:02;7.13;;;5.15;;
8580;SDS011;4328;48.622;9.230;2023-07-08T08:23:28;8.15;;;5.05;;
8580;SDS011;4328;48.622;9.230;2023-07-08T08:25:55;9.85;;;5.20;;
8580;SDS011;4328;48.622;9.230;2023-07-08T08:28:21;7.15;;;5.32;;
8580;SDS011;4328;48.622;9.230;2023-07-08T08:30:49;5.20;;;4.70;;
8580;SDS011;4328;48.622;9.230;2023-07-08T08:33:16;5.88;;;4.97;;
8580;SDS011;4328;48.622;9.230;2023-07-08T08:35:42;8.77;;;6.28;;
8580;SDS011;4328;48.622;9.230;2023-07-08T08:38:09;6.53;;;5.00;;
8580;SDS011;4328;48.622;9.230;2023-07-08T08:40:35;6.38;;;5.03;;
8580;SDS011;4328;48.622;9.230;2023-07-08T08:43:02;9.60;;;5.32;;
8580;SDS011;4328;48.622;9.230;2023-07-08T08:45:29;9.18;;;5.40;;
8580;SDS011;4328;48.622;9.230;2023-07-08T08:48:00;9.00;;;5.25;;
8580;SDS011;4328;48.622;9.230;2023-07-08T08:50:32;6.22;;;5.63;;
8580;SDS011;4328;48.622;9.230;2023-07-08T08:53:01;6.30;;;5.65;;
8580;SDS011;4328;48.622;9.230;2023-07-08T08:55:28;5.88;;;5.32;;
8580;SDS011;4328;48.622;9.230;2023-07-08T08:57:57;7.07;;;5.95;;
8580;SDS011;4328;48.622;9.230;2023-07-08T09:00:28;6.88;;;5.45;;
8580;SDS011;4328;48.622;9.230;2023-07-08T09:02:57;6.15;;;5.43;;
8580;SDS011;4328;48.622;9.230;2023-07-08T09:05:27;5.53;;;5.03;;
8580;SDS011;4328;48.622;9.230;2023-07-08T09:07:58;7.25;;;5.15;;
8580;SDS011;4328;48.622;9.230;2023-07-08T09:10:29;6.70;;;5.30;;
8580;SDS011;4328;48.622;9.230;2023-07-08T09:12:58;5.72;;;5.03;;
8580;SDS011;4328;48.622;9.230;2023-07-08T09:15:28;6.07;;;5.10;;
8580;SDS011;4328;48.622;9.230;2023-07-08T09:17:55;6.38;;;5.25;;
8580;SDS011;4328;48.622;9.230;2023-07-08T09:20:24;7.07;;;5.00;;
8580;SDS011;4328;48.622;9.230;2023-07-08T09:22:56;6.53;;;4.85;;
8580;SDS011;4328;48.622;9.230;2023-07-08T09:25:25;7.38;;;5.03;;
8580;SDS011;4328;48.622;9.230;2023-07-08T09:27:52;5.95;;;4.80;;
8580;SDS011;4328;48.622;9.230;2023-07-08T09:30:19;8.55;;;5.15;;
8580;SDS011;4328;48.622;9.230;2023-07-08T09:32:46;5.93;;;4.80;;
8580;SDS011;4328;48.622;9.230;2023-07-08T09:35:16;6.18;;;4.97;;
8580;SDS011;4328;48.622;9.230;2023-07-08T09:37:44;4.93;;;4.43;;
8580;SDS011;4328;48.622;9.230;2023-07-08T09:40:16;4.97;;;4.40;;
8580;SDS011;4328;48.622;9.230;2023-07-08T09:42:43;5.60;;;4.55;;
8580;SDS011;4328;48.622;9.230;2023-07-08T09:45:11;4.50;;;4.00;;
8580;SDS011;4328;48.622;9.230;2023-07-08T09:47:38;6.60;;;4.15;;
8580;SDS011;4328;48.622;9.230;2023-07-08T09:50:15;4.05;;;3.72;;
8580;SDS011;4328;48.622;9.230;2023-07-08T09:52:42;4.40;;;4.00;;
8580;SDS011;4328;48.622;9.230;2023-07-08T09:55:10;4.70;;;3.65;;
8580;SDS011;4328;48.622;9.230;2023-07-08T09:57:38;4.68;;;3.97;;
8580;SDS011;4328;48.622;9.230;2023-07-08T10:00:07;5.05;;;3.47;;
8580;SDS011;4328;48.622;9.230;2023-07-08T10:02:38;4.65;;;4.13;;
8580;SDS011;4328;48.622;9.230;2023-07-08T10:05:10;4.38;;;3.75;;
8580;SDS011;4328;48.622;9.230;2023-07-08T10:07:38;4.65;;;3.58;;
8580;SDS011;4328;48.622;9.230;2023-07-08T10:10:06;4.88;;;4.10;;
8580;SDS011;4328;48.622;9.230;2023-07-08T10:12:33;3.45;;;3.15;;
8580;SDS011;4328;48.622;9.230;2023-07-08T10:15:03;4.22;;;3.33;;
8580;SDS011;4328;48.622;9.230;2023-07-08T10:17:31;3.58;;;3.00;;
8580;SDS011;4328;48.622;9.230;2023-07-08T10:19:58;4.43;;;2.80;;
8580;SDS011;4328;48.622;9.230;2023-07-08T10:22:28;3.70;;;2.80;;
8580;SDS011;4328;48.622;9.230;2023-07-08T10:25:02;3.28;;;2.80;;
8580;SDS011;4328;48.622;9.230;2023-07-08T10:27:31;3.95;;;2.72;;
8580;SDS011;4328;48.622;9.230;2023-07-08T10:30:07;2.95;;;2.47;;
8580;SDS011;4328;48.622;9.230;2023-07-08T10:32:39;3.72;;;2.60;;
8580;SDS011;4328;48.622;9.230;2023-07-08T10:35:12;5.25;;;3.08;;
8580;SDS011;4328;48.622;9.230;2023-07-08T10:37:42;2.95;;;2.75;;
8580;SDS011;4328;48.622;9.230;2023-07-08T10:40:18;2.90;;;2.60;;
8580;SDS011;4328;48.622;9.230;2023-07-08T10:42:50;2.90;;;2.60;;
8580;SDS011;4328;48.622;9.230;2023-07-08T10:45:20;2.58;;;2.38;;
8580;SDS011;4328;48.622;9.230;2023-07-08T10:47:53;2.50;;;2.30;;
8580;SDS011;4328;48.622;9.230;2023-07-08T10:50:26;3.80;;;2.30;;
8580;SDS011;4328;48.622;9.230;2023-07-08T10:52:57;3.33;;;2.67;;
8580;SDS011;4328;48.622;9.230;2023-07-08T10:55:31;2.00;;;1.90;;
8580;SDS011;4328;48.622;9.230;2023-07-08T11:00:49;2.53;;;2.20;;
8580;SDS011;4328;48.622;9.230;2023-07-08T11:03:26;2.60;;;2.40;;
8580;SDS011;4328;48.622;9.230;2023-07-08T11:05:57;5.18;;;2.40;;
8580;SDS011;4328;48.622;9.230;2023-07-08T11:08:26;4.47;;;2.10;;
8580;SDS011;4328;48.622;9.230;2023-07-08T11:10:55;2.78;;;2.00;;
8580;SDS011;4328;48.622;9.230;2023-07-08T11:13:23;2.30;;;2.13;;
8580;SDS011;4328;48.622;9.230;2023-07-08T11:15:54;3.63;;;2.72;;
8580;SDS011;4328;48.622;9.230;2023-07-08T11:18:24;1.92;;;1.75;;
8580;SDS011;4328;48.622;9.230;2023-07-08T11:20:54;3.13;;;2.20;;
8580;SDS011;4328;48.622;9.230;2023-07-08T11:23:23;3.30;;;2.30;;
8580;SDS011;4328;48.622;9.230;2023-07-08T11:25:52;2.78;;;2.20;;
8580;SDS011;4328;48.622;9.230;2023-07-08T11:28:21;2.42;;;2.22;;
8580;SDS011;4328;48.622;9.230;2023-07-08T11:30:50;2.88;;;2.00;;
8580;SDS011;4328;48.622;9.230;2023-07-08T11:33:21;3.20;;;2.20;;
8580;SDS011;4328;48.622;9.230;2023-07-08T11:35:49;2.30;;;1.67;;
8580;SDS011;4328;48.622;9.230;2023-07-08T11:38:17;2.10;;;1.90;;
8580;SDS011;4328;48.622;9.230;2023-07-08T11:40:50;2.00;;;1.90;;
8580;SDS011;4328;48.622;9.230;2023-07-08T11:43:17;1.88;;;1.77;;
8580;SDS011;4328;48.622;9.230;2023-07-08T11:45:45;2.28;;;2.00;;
8580;SDS011;4328;48.622;9.230;2023-07-08T11:48:12;2.20;;;2.00;;
8580;SDS011;4328;48.622;9.230;2023-07-08T11:50:41;2.03;;;1.90;;
8580;SDS011;4328;48.622;9.230;2023-07-08T11:53:09;3.75;;;1.88;;
8580;SDS011;4328;48.622;9.230;2023-07-08T11:55:37;2.85;;;1.88;;
8580;SDS011;4328;48.622;9.230;2023-07-08T11:58:06;2.30;;;1.95;;
8580;SDS011;4328;48.622;9.230;2023-07-08T12:00:32;2.95;;;1.80;;
8580;SDS011;4328;48.622;9.230;2023-07-08T12:03:03;3.08;;;1.98;;
8580;SDS011;4328;48.622;9.230;2023-07-08T12:05:31;2.22;;;2.00;;
8580;SDS011;4328;48.622;9.230;2023-07-08T12:07:59;4.65;;;1.98;;
8580;SDS011;4328;48.622;9.230;2023-07-08T12:10:28;2.05;;;1.85;;
8580;SDS011;4328;48.622;9.230;2023-07-08T12:12:54;3.22;;;2.13;;
8580;SDS011;4328;48.622;9.230;2023-07-08T12:15:22;5.70;;;1.92;;
8580;SDS011;4328;48.622;9.230;2023-07-08T12:17:50;2.00;;;1.90;;
8580;SDS011;4328;48.622;9.230;2023-07-08T12:20:18;2.78;;;2.58;;
8580;SDS011;4328;48.622;9.230;2023-07-08T12:22:46;3.40;;;1.90;;
8580;SDS011;4328;48.622;9.230;2023-07-08T12:25:14;3.13;;;2.00;;
8580;SDS011;4328;48.622;9.230;2023-07-08T12:27:41;2.03;;;1.77;;
8580;SDS011;4328;48.622;9.230;2023-07-08T12:30:08;1.80;;;1.70;;
8580;SDS011;4328;48.622;9.230;2023-07-08T12:32:35;2.70;;;1.92;;
8580;SDS011;4328;48.622;9.230;2023-07-08T12:35:02;2.30;;;1.90;;
8580;SDS011;4328;48.622;9.230;2023-07-08T12:37:29;1.85;;;1.75;;
8580;SDS011;4328;48.622;9.230;2023-07-08T12:39:57;2.50;;;1.80;;
8580;SDS011;4328;48.622;9.230;2023-07-08T12:42:30;2.95;;;1.90;;
8580;SDS011;4328;48.622;9.230;2023-07-08T12:44:56;1.77;;;1.60;;
8580;SDS011;4328;48.622;9.230;2023-07-08T12:47:23;2.70;;;1.90;;
8580;SDS011;4328;48.622;9.230;2023-07-08T12:49:49;29.92;;;7.00;;
8580;SDS011;4328;48.622;9.230;2023-07-08T12:52:20;2.28;;;1.80;;
8580;SDS011;4328;48.622;9.230;2023-07-08T12:54:47;2.42;;;1.88;;
8580;SDS011;4328;48.622;9.230;2023-07-08T12:57:14;2.30;;;1.98;;
8580;SDS011;4328;48.622;9.230;2023-07-08T12:59:42;21.27;;;6.00;;
8580;SDS011;4328;48.622;9.230;2023-07-08T13:02:10;5.40;;;2.28;;
8580;SDS011;4328;48.622;9.230;2023-07-08T13:04:40;2.22;;;1.70;;
8580;SDS011;4328;48.622;9.230;2023-07-08T13:07:07;2.60;;;1.67;;
8580;SDS011;4328;48.622;9.230;2023-07-08T13:09:36;2.15;;;1.95;;
8580;SDS011;4328;48.622;9.230;2023-07-08T13:12:05;2.17;;;1.80;;
8580;SDS011;4328;48.622;9.230;2023-07-08T13:14:37;2.65;;;1.70;;
8580;SDS011;4328;48.622;9.230;2023-07-08T13:17:09;3.00;;;1.75;;
8580;SDS011;4328;48.622;9.230;2023-07-08T13:19:37;2.10;;;1.83;;
8580;SDS011;4328;48.622;9.230;2023-07-08T13:22:04;2.35;;;2.15;;
8580;SDS011;4328;48.622;9.230;2023-07-08T13:24:30;3.00;;;2.10;;
8580;SDS011;4328;48.622;9.230;2023-07-08T13:26:57;2.10;;;1.90;;
8580;SDS011;4328;48.622;9.230;2023-07-08T13:29:24;2.35;;;2.10;;
8580;SDS011;4328;48.622;9.230;2023-07-08T13:31:53;2.10;;;1.90;;
8580;SDS011;4328;48.622;9.230;2023-07-08T13:34:23;2.95;;;1.98;;
8580;SDS011;4328;48.622;9.230;2023-07-08T13:36:50;3.92;;;1.98;;
8580;SDS011;4328;48.622;9.230;2023-07-08T13:39:20;2.20;;;2.00;;
8580;SDS011;4328;48.622;9.230;2023-07-08T13:41:48;2.00;;;1.90;;
8580;SDS011;4328;48.622;9.230;2023-07-08T13:44:14;2.67;;;1.88;;
8580;SDS011;4328;48.622;9.230;2023-07-08T13:46:44;2.60;;;2.05;;
8580;SDS011;4328;48.622;9.230;2023-07-08T13:49:12;2.90;;;1.80;;
8580;SDS011;4328;48.622;9.230;2023-07-08T13:51:40;2.83;;;2.10;;
8580;SDS011;4328;48.622;9.230;2023-07-08T13:54:13;2.70;;;2.08;;
8580;SDS011;4328;48.622;9.230;2023-07-08T13:56:41;2.10;;;1.90;;
8580;SDS011;4328;48.622;9.230;2023-07-08T13:59:08;2.10;;;1.90;;
8580;SDS011;4328;48.622;9.230;2023-07-08T14:01:37;2.10;;;2.00;;
8580;SDS011;4328;48.622;9.230;2023-07-08T14:04:05;2.25;;;1.88;;
8580;SDS011;4328;48.622;9.230;2023-07-08T14:06:32;3.47;;;2.03;;
8580;SDS011;4328;48.622;9.230;2023-07-08T14:09:03;3.28;;;1.90;;
8580;SDS011;4328;48.622;9.230;2023-07-08T14:11:30;3.67;;;2.25;;
8580;SDS011;4328;48.622;9.230;2023-07-08T14:13:56;2.25;;;2.10;;
8580;SDS011;4328;48.622;9.230;2023-07-08T14:16:23;3.58;;;2.30;;
8580;SDS011;4328;48.622;9.230;2023-07-08T14:18:50;3.75;;;2.28;;
8580;SDS011;4328;48.622;9.230;2023-07-08T14:21:17;2.47;;;2.20;;
8580;SDS011;4328;48.622;9.230;2023-07-08T14:23:43;3.33;;;2.30;;
8580;SDS011;4328;48.622;9.230;2023-07-08T14:26:11;3.63;;;2.15;;
8580;SDS011;4328;48.622;9.230;2023-07-08T14:28:38;3.63;;;2.35;;
8580;SDS011;4328;48.622;9.230;2023-07-08T14:31:07;2.70;;;2.15;;
8580;SDS011;4328;48.622;9.230;2023-07-08T14:33:34;3.58;;;2.10;;
8580;SDS011;4328;48.622;9.230;2023-07-08T14:36:01;4.63;;;2.13;;
8580;SDS011;4328;48.622;9.230;2023-07-08T14:38:27;3.65;;;2.10;;
8580;SDS011;4328;48.622;9.230;2023-07-08T14:40:54;4.20;;;2.30;;
8580;SDS011;4328;48.622;9.230;2023-07-08T14:43:23;2.47;;;2.10;;
8580;SDS011;4328;48.622;9.230;2023-07-08T14:45:51;2.05;;;1.90;;
8580;SDS011;4328;48.622;9.230;2023-07-08T14:48:19;2.20;;;1.73;;
8580;SDS011;4328;48.622;9.230;2023-07-08T14:50:45;2.47;;;1.92;;
8580;SDS011;4328;48.622;9.230;2023-07-08T14:53:12;3.53;;;1.95;;
8580;SDS011;4328;48.622;9.230;2023-07-08T14:55:39;2.13;;;1.90;;
8580;SDS011;4328;48.622;9.230;2023-07-08T14:58:05;2.75;;;1.88;;
8580;SDS011;4328;48.622;9.230;2023-07-08T15:00:34;2.20;;;2.00;;
8580;SDS011;4328;48.622;9.230;2023-07-08T15:03:00;2.10;;;1.70;;
8580;SDS011;4328;48.622;9.230;2023-07-08T15:05:27;2.05;;;1.83;;
8580;SDS011;4328;48.622;9.230;2023-07-08T15:07:54;2.83;;;1.58;;
8580;SDS011;4328;48.622;9.230;2023-07-08T15:10:24;4.50;;;1.90;;
8580;SDS011;4328;48.622;9.230;2023-07-08T15:12:51;4.03;;;2.13;;
8580;SDS011;4328;48.622;9.230;2023-07-08T15:15:20;2.90;;;1.63;;
8580;SDS011;4328;48.622;9.230;2023-07-08T15:17:49;3.10;;;1.98;;
8580;SDS011;4328;48.622;9.230;2023-07-08T15:20:16;2.92;;;2.03;;